sensor_id;sensor_type;location;lat;lon;timestamp;pressure;altitude;pressure_sealevel;temperature;humidity
75425;BME280;64007;50.632;13.700;2023-03-26T00:00:37;96985.06;;;6.15;100.00
75425;BME280;64007;50.632;13.700;2023-03-26T00:03:25;96988.56;;;6.04;100.00
75425;BME280;64007;50.632;13.700;2023-03-26T00:08:27;96988.56;;;6.04;100.00
75425;BME280;64007;50.632;13.700;2023-03-26T00:10:53;96995.03;;;6.11;100.00
75425;BME280;64007;50.632;13.700;2023-03-26T00:13:19;96987.56;;;6.16;100.00
75425;BME280;64007;50.632;13.700;2023-03-26T00:15:44;96986.16;;;6.12;100.00
75425;BME280;64007;50.632;13.700;2023-03-26T00:18:10;96989.41;;;6.05;100.00
75425;BME280;64007;50.632;13.700;2023-03-26T00:20:36;96989.84;;;5.98;100.00
75425;BME280;64007;50.632;13.700;2023-03-26T00:23:03;96990.22;;;6.05;100.00
75425;BME280;64007;50.632;13.700;2023-03-26T00:25:29;96986.88;;;6.03;100.00
75425;BME280;64007;50.632;13.700;2023-03-26T00:27:56;96982.78;;;6.10;100.00
75425;BME280;64007;50.632;13.700;2023-03-26T00:30:23;96980.13;;;5.99;100.00
75425;BME280;64007;50.632;13.700;2023-03-26T00:32:48;96983.97;;;5.95;100.00
75425;BME280;64007;50.632;13.700;2023-03-26T00:35:14;96985.41;;;5.88;100.00
75425;BME280;64007;50.632;13.700;2023-03-26T00:37:40;96976.88;;;5.84;100.00
75425;BME280;64007;50.632;13.700;2023-03-26T00:40:09;96980.63;;;5.93;100.00
75425;BME280;64007;50.632;13.700;2023-03-26T00:42:38;96975.81;;;5.87;100.00
75425;BME280;64007;50.632;13.700;2023-03-26T00:45:05;96970.78;;;5.84;100.00
75425;BME280;64007;50.632;13.700;2023-03-26T00:47:32;96974.16;;;6.08;100.00
75425;BME280;64007;50.632;13.700;2023-03-26T00:49:58;96967.19;;;6.07;100.00
75425;BME280;64007;50.632;13.700;2023-03-26T00:52:24;96959.84;;;6.22;100.00
75425;BME280;64007;50.632;13.700;2023-03-26T00:54:53;96954.78;;;6.30;100.00
75425;BME280;64007;50.632;13.700;2023-03-26T00:57:19;96950.47;;;6.29;100.00
75425;BME280;64007;50.632;13.700;2023-03-26T00:59:47;96961.38;;;6.36;100.00
75425;BME280;64007;50.632;13.700;2023-03-26T01:02:15;96962.13;;;6.26;100.00
75425;BME280;64007;50.632;13.700;2023-03-26T01:04:47;96961.50;;;6.34;100.00
75425;BME280;64007;50.632;13.700;2023-03-26T01:07:15;96964.25;;;6.44;100.00
75425;BME280;64007;50.632;13.700;2023-03-26T01:09:45;96958.97;;;6.44;100.00
75425;BME280;64007;50.632;13.700;2023-03-26T01:12:17;96960.41;;;6.37;100.00
75425;BME280;64007;50.632;13.700;2023-03-26T01:14:46;96960.41;;;6.37;100.00
75425;BME280;64007;50.632;13.700;2023-03-26T01:17:12;96953.19;;;6.50;100.00
75425;BME280;64007;50.632;13.700;2023-03-26T01:22:17;96967.06;;;6.63;100.00
75425;BME280;64007;50.632;13.700;2023-03-26T01:24:43;96956.00;;;6.69;100.00
75425;BME280;64007;50.632;13.700;2023-03-26T01:27:28;96947.81;;;6.72;100.00
75425;BME280;64007;50.632;13.700;2023-03-26T01:40:45;96951.94;;;6.65;100.00
75425;BME280;64007;50.632;13.700;2023-03-26T01:46:06;96962.06;;;6.49;100.00
75425;BME280;64007;50.632;13.700;2023-03-26T01:48:36;96942.38;;;6.53;100.00
75425;BME280;64007;50.632;13.700;2023-03-26T01:51:03;96946.31;;;6.58;100.00
75425;BME280;64007;50.632;13.700;2023-03-26T01:53:31;96945.16;;;6.51;100.00
75425;BME280;64007;50.632;13.700;2023-03-26T01:56:13;96942.59;;;6.61;100.00
75425;BME280;64007;50.632;13.700;2023-03-26T02:01:58;96952.94;;;6.53;100.00
75425;BME280;64007;50.632;13.700;2023-03-26T02:07:20;96942.72;;;6.80;100.00
75425;BME280;64007;50.632;13.700;2023-03-26T02:09:57;96945.16;;;6.83;100.00
75425;BME280;64007;50.632;13.700;2023-03-26T02:12:24;96938.41;;;6.79;100.00
75425;BME280;64007;50.632;13.700;2023-03-26T02:14:51;96940.59;;;6.74;100.00
75425;BME280;64007;50.632;13.700;2023-03-26T02:17:17;96942.19;;;6.66;100.00
75425;BME280;64007;50.632;13.700;2023-03-26T02:19:43;96946.78;;;6.64;100.00
75425;BME280;64007;50.632;13.700;2023-03-26T02:22:11;96941.88;;;6.59;100.00
75425;BME280;64007;50.632;13.700;2023-03-26T02:24:41;96942.19;;;6.66;100.00
75425;BME280;64007;50.632;13.700;2023-03-26T02:27:07;96951.41;;;6.71;100.00
75425;BME280;64007;50.632;13.700;2023-03-26T02:29:37;96945.81;;;6.65;100.00
75425;BME280;64007;50.632;13.700;2023-03-26T02:32:09;96943.25;;;6.74;100.00
75425;BME280;64007;50.632;13.700;2023-03-26T02:34:41;96948.00;;;6.80;100.00
75425;BME280;64007;50.632;13.700;2023-03-26T02:37:08;96953.28;;;6.80;100.00
75425;BME280;64007;50.632;13.700;2023-03-26T02:39:34;96963.00;;;6.91;100.00
75425;BME280;64007;50.632;13.700;2023-03-26T02:42:00;96961.13;;;7.03;100.00
75425;BME280;64007;50.632;13.700;2023-03-26T02:44:26;96947.47;;;6.98;100.00
75425;BME280;64007;50.632;13.700;2023-03-26T02:46:53;96949.41;;;6.96;100.00
75425;BME280;64007;50.632;13.700;2023-03-26T02:49:18;96947.47;;;6.98;100.00
75425;BME280;64007;50.632;13.700;2023-03-26T02:51:44;96951.16;;;7.06;100.00
75425;BME280;64007;50.632;13.700;2023-03-26T02:54:09;96951.72;;;7.10;100.00
75425;BME280;64007;50.632;13.700;2023-03-26T02:56:35;96950.03;;;7.09;100.00
75425;BME280;64007;50.632;13.700;2023-03-26T02:59:01;96949.28;;;6.97;100.00
75425;BME280;64007;50.632;13.700;2023-03-26T03:01:27;96944.88;;;7.07;100.00
75425;BME280;64007;50.632;13.700;2023-03-26T03:03:55;96941.66;;;7.04;100.00
75425;BME280;64007;50.632;13.700;2023-03-26T03:06:21;96943.16;;;6.97;100.00
75425;BME280;64007;50.632;13.700;2023-03-26T03:08:47;96947.22;;;7.01;100.00
75425;BME280;64007;50.632;13.700;2023-03-26T03:11:17;96939.03;;;7.04;100.00
75425;BME280;64007;50.632;13.700;2023-03-26T03:13:46;96931.63;;;6.98;100.00
75425;BME280;64007;50.632;13.700;2023-03-26T03:16:12;96946.97;;;7.04;100.00
75425;BME280;64007;50.632;13.700;2023-03-26T03:18:38;96932.69;;;7.16;100.00
75425;BME280;64007;50.632;13.700;2023-03-26T03:21:05;96939.22;;;7.12;100.00
75425;BME280;64007;50.632;13.700;2023-03-26T03:23:31;96945.34;;;7.12;100.00
75425;BME280;64007;50.632;13.700;2023-03-26T03:25:57;96939.47;;;7.09;100.00
75425;BME280;64007;50.632;13.700;2023-03-26T03:28:23;96938.19;;;7.24;100.00
75425;BME280;64007;50.632;13.700;2023-03-26T03:30:49;96940.28;;;7.20;100.00
75425;BME280;64007;50.632;13.700;2023-03-26T03:33:21;96945.06;;;7.15;100.00
75425;BME280;64007;50.632;13.700;2023-03-26T03:35:47;96944.81;;;7.18;100.00
75425;BME280;64007;50.632;13.700;2023-03-26T03:38:15;96940.38;;;7.19;100.00
75425;BME280;64007;50.632;13.700;2023-03-26T03:40:41;96938.94;;;7.15;100.00
75425;BME280;64007;50.632;13.700;2023-03-26T03:43:07;96943.84;;;7.19;100.00
75425;BME280;64007;50.632;13.700;2023-03-26T03:45:33;96945.16;;;7.25;100.00
75425;BME280;64007;50.632;13.700;2023-03-26T03:47:59;96946.50;;;7.19;100.00
75425;BME280;64007;50.632;13.700;2023-03-26T03:50:24;96944.91;;;7.28;100.00
75425;BME280;64007;50.632;13.700;2023-03-26T03:52:51;96936.53;;;7.23;100.00
75425;BME280;64007;50.632;13.700;2023-03-26T03:55:17;96935.56;;;7.24;100.00
75425;BME280;64007;50.632;13.700;2023-03-26T03:57:43;96935.44;;;7.26;100.00
75425;BME280;64007;50.632;13.700;2023-03-26T04:00:10;96932.91;;;7.24;100.00
75425;BME280;64007;50.632;13.700;2023-03-26T04:02:37;96945.88;;;7.27;100.00
75425;BME280;64007;50.632;13.700;2023-03-26T04:05:03;96934.31;;;7.28;99.28
75425;BME280;64007;50.632;13.700;2023-03-26T04:07:31;96935.22;;;7.38;100.00
75425;BME280;64007;50.632;13.700;2023-03-26T04:09:58;96941.94;;;7.21;100.00
75425;BME280;64007;50.632;13.700;2023-03-26T04:12:30;96935.34;;;7.16;100.00
75425;BME280;64007;50.632;13.700;2023-03-26T04:14:56;96933.63;;;7.26;100.00
75425;BME280;64007;50.632;13.700;2023-03-26T04:17:22;96936.75;;;7.20;100.00
75425;BME280;64007;50.632;13.700;2023-03-26T04:19:49;96944.56;;;7.42;94.35
75425;BME280;64007;50.632;13.700;2023-03-26T04:22:17;96933.00;;;7.43;93.80
75425;BME280;64007;50.632;13.700;2023-03-26T04:24:44;96943.47;;;7.45;94.86
75425;BME280;64007;50.632;13.700;2023-03-26T04:27:18;96948.63;;;7.46;94.17
75425;BME280;64007;50.632;13.700;2023-03-26T04:29:47;96939.19;;;7.53;98.20
75425;BME280;64007;50.632;13.700;2023-03-26T04:32:25;96933.84;;;7.44;100.00
75425;BME280;64007;50.632;13.700;2023-03-26T04:34:55;96949.09;;;7.31;100.00
75425;BME280;64007;50.632;13.700;2023-03-26T04:37:27;96941.44;;;7.28;100.00
75425;BME280;64007;50.632;13.700;2023-03-26T04:39:56;96942.03;;;7.20;100.00
75425;BME280;64007;50.632;13.700;2023-03-26T04:42:22;96937.03;;;7.17;100.00
75425;BME280;64007;50.632;13.700;2023-03-26T04:44:48;96939.88;;;7.25;100.00
75425;BME280;64007;50.632;13.700;2023-03-26T04:47:17;96935.34;;;7.16;100.00
75425;BME280;64007;50.632;13.700;2023-03-26T04:49:45;96936.19;;;7.16;100.00
75425;BME280;64007;50.632;13.700;2023-03-26T04:52:12;96944.50;;;7.12;100.00
75425;BME280;64007;50.632;13.700;2023-03-26T04:54:38;96937.28;;;7.14;100.00
75425;BME280;64007;50.632;13.700;2023-03-26T04:57:21;96930.75;;;7.18;100.00
75425;BME280;64007;50.632;13.700;2023-03-26T04:59:48;96936.88;;;7.18;100.00
75425;BME280;64007;50.632;13.700;2023-03-26T05:02:14;96942.03;;;7.20;100.00
75425;BME280;64007;50.632;13.700;2023-03-26T05:04:40;96951.47;;;7.13;100.00
75425;BME280;64007;50.632;13.700;2023-03-26T05:07:09;96954.09;;;7.13;100.00
75425;BME280;64007;50.632;13.700;2023-03-26T05:09:35;96953.84;;;7.16;100.00
75425;BME280;64007;50.632;13.700;2023-03-26T05:12:01;96950.03;;;7.09;100.00
75425;BME280;64007;50.632;13.700;2023-03-26T05:14:27;96957.00;;;7.10;100.00
75425;BME280;64007;50.632;13.700;2023-03-26T05:16:53;96955.91;;;7.12;100.00
75425;BME280;64007;50.632;13.700;2023-03-26T05:19:19;96960.63;;;7.09;100.00
75425;BME280;64007;50.632;13.700;2023-03-26T05:21:45;96956.22;;;7.19;100.00
75425;BME280;64007;50.632;13.700;2023-03-26T05:24:11;96958.53;;;7.23;100.00
75425;BME280;64007;50.632;13.700;2023-03-26T05:26:36;96959.09;;;7.27;100.00
75425;BME280;64007;50.632;13.700;2023-03-26T05:29:03;96962.44;;;7.29;100.00
75425;BME280;64007;50.632;13.700;2023-03-26T05:31:29;96968.25;;;7.23;100.00
75425;BME280;64007;50.632;13.700;2023-03-26T05:33:58;96957.69;;;7.23;100.00
75425;BME280;64007;50.632;13.700;2023-03-26T05:36:27;96956.00;;;7.22;99.82
75425;BME280;64007;50.632;13.700;2023-03-26T05:38:53;96960.50;;;7.31;96.88
75425;BME280;64007;50.632;13.700;2023-03-26T05:41:19;96963.84;;;7.33;98.71
75425;BME280;64007;50.632;13.700;2023-03-26T05:43:44;96953.53;;;7.30;98.48
75425;BME280;64007;50.632;13.700;2023-03-26T05:46:12;96969.16;;;7.33;98.04
75425;BME280;64007;50.632;13.700;2023-03-26T05:48:38;96958.56;;;7.33;97.99
75425;BME280;64007;50.632;13.700;2023-03-26T05:51:04;96952.06;;;7.37;98.08
75425;BME280;64007;50.632;13.700;2023-03-26T05:53:31;96955.47;;;7.28;100.00
75425;BME280;64007;50.632;13.700;2023-03-26T05:55:56;96953.53;;;7.30;100.00
75425;BME280;64007;50.632;13.700;2023-03-26T05:58:27;96956.91;;;7.32;100.00
75425;BME280;64007;50.632;13.700;2023-03-26T06:00:58;96964.13;;;7.30;100.00
75425;BME280;64007;50.632;13.700;2023-03-26T06:03:24;96963.47;;;7.38;100.00
75425;BME280;64007;50.632;13.700;2023-03-26T06:05:50;96960.25;;;7.34;100.00
75425;BME280;64007;50.632;13.700;2023-03-26T06:08:16;96963.06;;;7.42;96.44
75425;BME280;64007;50.632;13.700;2023-03-26T06:10:43;96965.31;;;7.47;96.69
75425;BME280;64007;50.632;13.700;2023-03-26T06:13:10;96961.97;;;7.45;97.85
75425;BME280;64007;50.632;13.700;2023-03-26T06:15:36;96963.19;;;7.41;97.94
75425;BME280;64007;50.632;13.700;2023-03-26T06:18:02;96963.81;;;7.54;98.94
75425;BME280;64007;50.632;13.700;2023-03-26T06:20:27;96964.47;;;7.46;100.00
75425;BME280;64007;50.632;13.700;2023-03-26T06:22:53;96959.88;;;7.69;100.00
75425;BME280;64007;50.632;13.700;2023-03-26T06:25:19;96961.88;;;7.56;100.00
75425;BME280;64007;50.632;13.700;2023-03-26T06:27:45;96949.63;;;7.55;100.00
75425;BME280;64007;50.632;13.700;2023-03-26T06:30:11;96957.06;;;7.61;100.00
75425;BME280;64007;50.632;13.700;2023-03-26T06:32:37;96963.19;;;7.62;100.00
75425;BME280;64007;50.632;13.700;2023-03-26T06:35:03;96962.13;;;7.74;100.00
75425;BME280;64007;50.632;13.700;2023-03-26T06:37:28;96964.34;;;7.69;100.00
75425;BME280;64007;50.632;13.700;2023-03-26T06:39:54;96959.41;;;7.85;100.00
75425;BME280;64007;50.632;13.700;2023-03-26T06:42:20;96958.13;;;7.79;100.00
75425;BME280;64007;50.632;13.700;2023-03-26T06:44:46;96957.38;;;7.68;100.00
75425;BME280;64007;50.632;13.700;2023-03-26T06:47:11;96954.28;;;7.63;100.00
75425;BME280;64007;50.632;13.700;2023-03-26T06:49:37;96952.81;;;7.79;100.00
75425;BME280;64007;50.632;13.700;2023-03-26T06:52:04;96957.63;;;7.95;100.00
75425;BME280;64007;50.632;13.700;2023-03-26T06:54:29;96963.53;;;7.78;100.00
75425;BME280;64007;50.632;13.700;2023-03-26T06:56:55;96966.63;;;7.83;100.00
75425;BME280;64007;50.632;13.700;2023-03-26T06:59:21;96966.34;;;7.86;100.00
75425;BME280;64007;50.632;13.700;2023-03-26T07:01:47;96963.28;;;7.81;100.00
75425;BME280;64007;50.632;13.700;2023-03-26T07:04:12;96964.69;;;7.85;100.00
75425;BME280;64007;50.632;13.700;2023-03-26T07:06:38;96965.38;;;7.87;98.97
75425;BME280;64007;50.632;13.700;2023-03-26T07:09:04;96967.91;;;7.89;100.00
75425;BME280;64007;50.632;13.700;2023-03-26T07:11:30;96963.16;;;8.23;98.97
75425;BME280;64007;50.632;13.700;2023-03-26T07:13:55;96968.84;;;8.08;100.00
75425;BME280;64007;50.632;13.700;2023-03-26T07:16:21;96957.81;;;8.03;98.24
75425;BME280;64007;50.632;13.700;2023-03-26T07:18:47;96949.16;;;8.01;100.00
75425;BME280;64007;50.632;13.700;2023-03-26T07:21:13;96951.28;;;8.07;92.24
75425;BME280;64007;50.632;13.700;2023-03-26T07:23:39;96953.50;;;8.02;97.17
75425;BME280;64007;50.632;13.700;2023-03-26T07:26:22;96963.25;;;8.11;93.50
75425;BME280;64007;50.632;13.700;2023-03-26T07:37:17;96950.16;;;8.10;97.73
75425;BME280;64007;50.632;13.700;2023-03-26T07:45:59;96942.81;;;8.23;96.08
75425;BME280;64007;50.632;13.700;2023-03-26T07:48:21;96937.38;;;8.25;93.96
75425;BME280;64007;50.632;13.700;2023-03-26T07:50:52;96933.75;;;8.26;96.76
75425;BME280;64007;50.632;13.700;2023-03-26T07:53:19;96931.09;;;8.26;93.05
75425;BME280;64007;50.632;13.700;2023-03-26T08:06:57;96931.91;;;8.86;82.92
75425;BME280;64007;50.632;13.700;2023-03-26T08:09:39;96932.44;;;8.79;81.85
75425;BME280;64007;50.632;13.700;2023-03-26T08:12:19;96922.53;;;8.72;85.83
75425;BME280;64007;50.632;13.700;2023-03-26T08:17:45;96918.34;;;9.08;81.35
75425;BME280;64007;50.632;13.700;2023-03-26T08:20:27;96919.16;;;9.18;83.14
75425;BME280;64007;50.632;13.700;2023-03-26T08:23:07;96918.63;;;9.24;79.60
75425;BME280;64007;50.632;13.700;2023-03-26T08:25:45;96921.78;;;9.37;78.75
75425;BME280;64007;50.632;13.700;2023-03-26T08:31:08;96914.59;;;9.67;74.24
75425;BME280;64007;50.632;13.700;2023-03-26T08:33:35;96923.78;;;9.72;75.06
75425;BME280;64007;50.632;13.700;2023-03-26T08:36:01;96907.59;;;9.66;70.81
75425;BME280;64007;50.632;13.700;2023-03-26T08:38:27;96909.56;;;10.01;77.24
75425;BME280;64007;50.632;13.700;2023-03-26T08:48:55;96898.28;;;10.17;71.12
75425;BME280;64007;50.632;13.700;2023-03-26T08:54:13;96895.63;;;10.17;69.54
75425;BME280;64007;50.632;13.700;2023-03-26T09:10:44;96863.28;;;10.84;62.26
75425;BME280;64007;50.632;13.700;2023-03-26T09:16:46;96849.50;;;10.89;59.06
75425;BME280;64007;50.632;13.700;2023-03-26T09:33:09;96861.31;;;11.12;59.22
75425;BME280;64007;50.632;13.700;2023-03-26T09:35:49;96872.56;;;11.06;61.73
75425;BME280;64007;50.632;13.700;2023-03-26T09:57:05;96828.84;;;11.09;63.82
75425;BME280;64007;50.632;13.700;2023-03-26T09:59:56;96824.41;;;11.17;63.57
75425;BME280;64007;50.632;13.700;2023-03-26T10:08:43;96818.50;;;10.80;59.16
75425;BME280;64007;50.632;13.700;2023-03-26T10:11:22;96813.13;;;10.89;57.25
75425;BME280;64007;50.632;13.700;2023-03-26T10:27:36;96786.69;;;11.56;62.55
75425;BME280;64007;50.632;13.700;2023-03-26T10:30:06;96781.75;;;11.61;62.92
75425;BME280;64007;50.632;13.700;2023-03-26T10:36:26;96774.56;;;11.96;63.69
75425;BME280;64007;50.632;13.700;2023-03-26T10:38:56;96770.56;;;12.00;62.06
75425;BME280;64007;50.632;13.700;2023-03-26T10:47:44;96752.22;;;11.80;59.63
75425;BME280;64007;50.632;13.700;2023-03-26T10:49:57;96747.88;;;11.79;59.33
75425;BME280;64007;50.632;13.700;2023-03-26T10:52:33;96741.72;;;11.79;60.25
75425;BME280;64007;50.632;13.700;2023-03-26T11:00:24;96735.09;;;11.91;58.25
75425;BME280;64007;50.632;13.700;2023-03-26T11:08:50;96743.63;;;12.35;56.64
75425;BME280;64007;50.632;13.700;2023-03-26T11:21:50;96705.03;;;13.27;48.95
75425;BME280;64007;50.632;13.700;2023-03-26T11:27:11;96693.34;;;13.12;54.08
75425;BME280;64007;50.632;13.700;2023-03-26T11:29:48;96693.94;;;12.83;56.01
75425;BME280;64007;50.632;13.700;2023-03-26T11:32:25;96699.63;;;12.64;51.30
75425;BME280;64007;50.632;13.700;2023-03-26T11:35:16;96693.66;;;12.62;51.93
75425;BME280;64007;50.632;13.700;2023-03-26T11:37:47;96692.94;;;12.76;50.49
75425;BME280;64007;50.632;13.700;2023-03-26T11:40:20;96686.13;;;12.81;50.42
75425;BME280;64007;50.632;13.700;2023-03-26T11:42:57;96698.97;;;12.70;50.99
75425;BME280;64007;50.632;13.700;2023-03-26T11:45:27;96686.56;;;13.01;50.48
75425;BME280;64007;50.632;13.700;2023-03-26T11:48:26;96682.63;;;12.81;53.99
75425;BME280;64007;50.632;13.700;2023-03-26T11:51:02;96670.13;;;12.65;50.89
75425;BME280;64007;50.632;13.700;2023-03-26T11:53:32;96679.00;;;12.25;52.35
75425;BME280;64007;50.632;13.700;2023-03-26T11:56:36;96682.69;;;12.08;51.34
75425;BME280;64007;50.632;13.700;2023-03-26T12:01:46;96685.31;;;11.83;50.75
75425;BME280;64007;50.632;13.700;2023-03-26T12:04:17;96688.94;;;11.74;50.62
75425;BME280;64007;50.632;13.700;2023-03-26T12:07:22;96676.59;;;11.65;50.73
75425;BME280;64007;50.632;13.700;2023-03-26T12:09:56;96672.38;;;11.46;51.18
75425;BME280;64007;50.632;13.700;2023-03-26T12:12:31;96681.47;;;11.27;51.99
75425;BME280;64007;50.632;13.700;2023-03-26T12:14:58;96679.25;;;11.15;51.74
75425;BME280;64007;50.632;13.700;2023-03-26T12:19:54;96678.63;;;11.21;52.94
75425;BME280;64007;50.632;13.700;2023-03-26T12:22:31;96675.25;;;11.11;53.48
75425;BME280;64007;50.632;13.700;2023-03-26T12:25:20;96681.69;;;11.00;53.27
75425;BME280;64007;50.632;13.700;2023-03-26T12:27:56;96677.28;;;10.83;54.11
75425;BME280;64007;50.632;13.700;2023-03-26T12:32:56;96678.28;;;10.82;55.89
75425;BME280;64007;50.632;13.700;2023-03-26T12:35:25;96677.97;;;10.85;55.70
75425;BME280;64007;50.632;13.700;2023-03-26T12:37:53;96677.22;;;10.75;55.58
75425;BME280;64007;50.632;13.700;2023-03-26T12:40:33;96676.47;;;10.82;55.84
75425;BME280;64007;50.632;13.700;2023-03-26T12:43:04;96673.72;;;11.00;54.93
75425;BME280;64007;50.632;13.700;2023-03-26T12:45:41;96668.78;;;11.13;55.81
75425;BME280;64007;50.632;13.700;2023-03-26T12:48:13;96667.25;;;11.11;55.91
75425;BME280;64007;50.632;13.700;2023-03-26T12:56:16;96671.47;;;11.21;57.36
75425;BME280;64007;50.632;13.700;2023-03-26T13:01:52;96665.69;;;11.26;59.12
75425;BME280;64007;50.632;13.700;2023-03-26T13:07:35;96657.53;;;10.85;59.41
75425;BME280;64007;50.632;13.700;2023-03-26T13:12:58;96662.44;;;10.46;60.29
75425;BME280;64007;50.632;13.700;2023-03-26T13:15:49;96661.66;;;10.54;59.41
75425;BME280;64007;50.632;13.700;2023-03-26T13:19:07;96658.72;;;10.39;61.64
75425;BME280;64007;50.632;13.700;2023-03-26T13:21:14;96659.13;;;10.44;62.21
75425;BME280;64007;50.632;13.700;2023-03-26T13:23:45;96655.47;;;10.45;61.88
75425;BME280;64007;50.632;13.700;2023-03-26T13:29:11;96661.13;;;10.24;63.25
75425;BME280;64007;50.632;13.700;2023-03-26T13:35:06;96653.47;;;10.21;63.56
75425;BME280;64007;50.632;13.700;2023-03-26T13:40:29;96649.75;;;10.40;64.73
75425;BME280;64007;50.632;13.700;2023-03-26T13:48:12;96661.56;;;10.20;66.73
75425;BME280;64007;50.632;13.700;2023-03-26T13:50:43;96659.81;;;10.28;66.56
75425;BME280;64007;50.632;13.700;2023-03-26T13:53:18;96655.34;;;10.29;66.39
75425;BME280;64007;50.632;13.700;2023-03-26T13:55:54;96660.53;;;10.13;66.99
75425;BME280;64007;50.632;13.700;2023-03-26T13:58:33;96662.72;;;9.99;68.89
75425;BME280;64007;50.632;13.700;2023-03-26T14:03:38;96653.63;;;9.84;72.55
75425;BME280;64007;50.632;13.700;2023-03-26T14:06:17;96659.47;;;10.05;72.52
75425;BME280;64007;50.632;13.700;2023-03-26T14:08:47;96657.72;;;9.96;73.06
75425;BME280;64007;50.632;13.700;2023-03-26T14:11:21;96655.16;;;9.87;74.28
75425;BME280;64007;50.632;13.700;2023-03-26T14:14:18;96652.72;;;9.76;78.81
75425;BME280;64007;50.632;13.700;2023-03-26T14:16:53;96656.19;;;9.58;78.56
75425;BME280;64007;50.632;13.700;2023-03-26T14:19:41;96652.56;;;9.41;81.54
75425;BME280;64007;50.632;13.700;2023-03-26T14:28:09;96649.44;;;9.28;100.00
75425;BME280;64007;50.632;13.700;2023-03-26T14:31:15;96651.94;;;9.30;100.00
75425;BME280;64007;50.632;13.700;2023-03-26T14:33:47;96646.19;;;9.34;100.00
75425;BME280;64007;50.632;13.700;2023-03-26T14:36:37;96646.88;;;9.36;100.00
75425;BME280;64007;50.632;13.700;2023-03-26T14:42:07;96642.78;;;9.24;100.00
75425;BME280;64007;50.632;13.700;2023-03-26T14:47:22;96635.91;;;9.04;100.00
75425;BME280;64007;50.632;13.700;2023-03-26T14:50:18;96633.09;;;8.78;100.00
75425;BME280;64007;50.632;13.700;2023-03-26T14:52:53;96636.16;;;8.83;100.00
75425;BME280;64007;50.632;13.700;2023-03-26T15:11:56;96620.28;;;8.27;100.00
75425;BME280;64007;50.632;13.700;2023-03-26T15:20:14;96616.25;;;8.42;100.00
75425;BME280;64007;50.632;13.700;2023-03-26T15:36:47;96605.28;;;8.92;100.00
75425;BME280;64007;50.632;13.700;2023-03-26T15:39:37;96603.31;;;8.94;100.00
75425;BME280;64007;50.632;13.700;2023-03-26T15:42:30;96605.03;;;8.85;100.00
75425;BME280;64007;50.632;13.700;2023-03-26T15:53:20;96602.03;;;8.70;100.00
75425;BME280;64007;50.632;13.700;2023-03-26T15:55:59;96602.91;;;8.61;100.00
75425;BME280;64007;50.632;13.700;2023-03-26T16:01:16;96595.25;;;8.58;100.00
75425;BME280;64007;50.632;13.700;2023-03-26T16:04:14;96593.50;;;8.49;100.00
75425;BME280;64007;50.632;13.700;2023-03-26T16:07:03;96596.25;;;8.57;100.00
75425;BME280;64007;50.632;13.700;2023-03-26T16:23:31;96595.47;;;8.37;100.00
75425;BME280;64007;50.632;13.700;2023-03-26T16:28:34;96594.94;;;8.34;100.00
75425;BME280;64007;50.632;13.700;2023-03-26T16:31:28;96591.97;;;8.46;100.00
75425;BME280;64007;50.632;13.700;2023-03-26T16:36:33;96589.09;;;8.21;100.00
75425;BME280;64007;50.632;13.700;2023-03-26T16:41:32;96587.94;;;8.42;100.00
75425;BME280;64007;50.632;13.700;2023-03-26T16:44:23;96594.09;;;8.24;100.00
75425;BME280;64007;50.632;13.700;2023-03-26T16:49:51;96583.97;;;8.09;100.00
75425;BME280;64007;50.632;13.700;2023-03-26T16:54:59;96577.03;;;8.08;100.00
75425;BME280;64007;50.632;13.700;2023-03-26T17:03:37;96584.34;;;8.34;100.00
75425;BME280;64007;50.632;13.700;2023-03-26T17:06:30;96575.97;;;8.29;100.00
75425;BME280;64007;50.632;13.700;2023-03-26T17:09:18;96586.56;;;8.29;100.00
75425;BME280;64007;50.632;13.700;2023-03-26T17:11:55;96581.31;;;8.19;100.00
75425;BME280;64007;50.632;13.700;2023-03-26T17:14:44;96587.81;;;8.25;100.00
75425;BME280;64007;50.632;13.700;2023-03-26T17:20:32;96595.00;;;7.95;100.00
75425;BME280;64007;50.632;13.700;2023-03-26T17:32:02;96602.00;;;7.77;100.00
75425;BME280;64007;50.632;13.700;2023-03-26T17:42:32;96600.69;;;8.00;100.00
75425;BME280;64007;50.632;13.700;2023-03-26T17:45:17;96613.41;;;7.87;100.00
75425;BME280;64007;50.632;13.700;2023-03-26T17:48:13;96607.59;;;7.74;100.00
75425;BME280;64007;50.632;13.700;2023-03-26T17:50:53;96609.53;;;7.72;100.00
75425;BME280;64007;50.632;13.700;2023-03-26T17:53:27;96614.56;;;7.65;100.00
75425;BME280;64007;50.632;13.700;2023-03-26T17:56:00;96619.72;;;7.67;100.00
75425;BME280;64007;50.632;13.700;2023-03-26T17:58:36;96617.91;;;7.67;100.00
75425;BME280;64007;50.632;13.700;2023-03-26T18:01:25;96617.88;;;7.58;100.00
75425;BME280;64007;50.632;13.700;2023-03-26T18:03:58;96615.94;;;7.60;100.00
75425;BME280;64007;50.632;13.700;2023-03-26T18:10:09;96619.13;;;7.53;100.00
75425;BME280;64007;50.632;13.700;2023-03-26T18:21:03;96621.66;;;7.45;100.00
75425;BME280;64007;50.632;13.700;2023-03-26T18:23:40;96614.28;;;7.39;100.00
75425;BME280;64007;50.632;13.700;2023-03-26T18:28:50;96617.34;;;7.35;100.00
75425;BME280;64007;50.632;13.700;2023-03-26T18:31:21;96624.44;;;7.34;100.00
75425;BME280;64007;50.632;13.700;2023-03-26T18:33:49;96629.03;;;7.32;100.00
75425;BME280;64007;50.632;13.700;2023-03-26T18:36:19;96624.00;;;7.29;100.00
75425;BME280;64007;50.632;13.700;2023-03-26T18:38:45;96629.03;;;7.32;100.00
75425;BME280;64007;50.632;13.700;2023-03-26T18:41:24;96619.16;;;7.34;100.00
75425;BME280;64007;50.632;13.700;2023-03-26T18:43:53;96619.28;;;7.33;100.00
75425;BME280;64007;50.632;13.700;2023-03-26T18:46:21;96617.75;;;7.30;100.00
75425;BME280;64007;50.632;13.700;2023-03-26T18:48:48;96617.63;;;7.32;100.00
75425;BME280;64007;50.632;13.700;2023-03-26T18:51:14;96612.59;;;7.29;100.00